Time;durP1;ratioP1;P1;durP2;ratioP2;P2;SDS_P1;SDS_P2;PMS_P1;PMS_P2;Temp;Humidity;BMP_temperature;BMP_pressure;BME280_temperature;BME280_humidity;BME280_pressure;Samples;Min_cycle;Max_cycle;Signal;HPM_P1;HPM_P2
2022/05/11 00:00:44;;;;;;;2.53;1.13;;;16.20;99.90;;;;;;5033830;28;20025;-33
2022/05/11 00:03:11;;;;;;;4.78;1.20;;;16.20;99.90;;;;;;5033959;28;20104;-32
2022/05/11 00:05:37;;;;;;;3.10;1.17;;;16.10;99.90;;;;;;5034867;28;20052;-35
2022/05/11 00:08:03;;;;;;;4.35;1.17;;;16.20;99.90;;;;;;5034711;28;20058;-30
2022/05/11 00:10:30;;;;;;;8.68;1.48;;;16.10;99.90;;;;;;5034674;28;20109;-33
2022/05/11 00:12:57;;;;;;;8.65;1.50;;;16.20;99.90;;;;;;5034638;28;20025;-29
2022/05/11 00:15:24;;;;;;;5.07;1.58;;;16.10;99.90;;;;;;5034729;28;20238;-28
2022/05/11 00:17:49;;;;;;;9.43;1.60;;;16.10;99.90;;;;;;5034571;28;20029;-32
2022/05/11 00:20:16;;;;;;;10.45;2.85;;;16.10;99.90;;;;;;5034443;28;20022;-29
2022/05/11 00:22:42;;;;;;;3.55;1.27;;;16.10;99.90;;;;;;5034479;28;20045;-31
2022/05/11 00:25:10;;;;;;;7.38;1.58;;;16.10;99.90;;;;;;5034471;28;20466;-29
2022/05/11 00:27:35;;;;;;;5.60;1.70;;;16.10;99.90;;;;;;5034455;28;20033;-32
2022/05/11 00:30:02;;;;;;;2.30;1.48;;;16.10;99.90;;;;;;5034400;28;20032;-30
2022/05/11 00:32:28;;;;;;;4.13;1.77;;;16.10;99.90;;;;;;5034635;28;20060;-29
2022/05/11 00:34:56;;;;;;;3.85;1.60;;;16.10;99.90;;;;;;5034218;28;20029;-32
2022/05/11 00:37:23;;;;;;;3.05;2.00;;;16.10;99.90;;;;;;5034224;28;20032;-32
2022/05/11 00:39:50;;;;;;;9.65;2.10;;;16.10;99.90;;;;;;5034386;28;20017;-33
2022/05/11 00:42:15;;;;;;;5.35;2.30;;;16.10;99.90;;;;;;5032805;28;20484;-29
2022/05/11 00:44:42;;;;;;;6.22;2.22;;;16.10;99.90;;;;;;5034356;28;20026;-35
2022/05/11 00:47:20;;;;;;;9.23;2.92;;;16.10;99.90;;;;;;5034297;28;20439;-32
2022/05/11 00:49:51;;;;;;;5.20;2.22;;;16.10;99.90;;;;;;5032463;28;20038;-31
2022/05/11 00:52:29;;;;;;;7.20;2.20;;;16.10;99.90;;;;;;5032725;28;20021;-38
2022/05/11 00:55:08;;;;;;;9.98;2.33;;;16.10;99.90;;;;;;5033942;28;20147;-31
2022/05/11 00:57:37;;;;;;;4.55;1.70;;;16.10;99.90;;;;;;5034014;28;20478;-30
2022/05/11 01:00:08;;;;;;;7.35;2.28;;;16.10;99.90;;;;;;5033681;28;20032;-28
2022/05/11 01:02:34;;;;;;;4.95;1.88;;;16.10;99.90;;;;;;5033743;28;20022;-33
2022/05/11 01:05:04;;;;;;;5.43;2.00;;;16.10;99.90;;;;;;5032444;28;20013;-31
2022/05/11 01:07:29;;;;;;;3.92;1.85;;;16.00;99.90;;;;;;5033726;28;20028;-30
2022/05/11 01:09:55;;;;;;;6.25;2.05;;;16.10;99.90;;;;;;5033619;28;20029;-47
2022/05/11 01:12:26;;;;;;;5.40;1.90;;;16.10;99.90;;;;;;5033888;28;20025;-31
2022/05/11 01:14:54;;;;;;;5.53;1.95;;;16.10;99.90;;;;;;5033555;28;20427;-31
2022/05/11 01:17:24;;;;;;;3.97;2.00;;;16.10;99.90;;;;;;5033498;28;20041;-33
2022/05/11 01:19:50;;;;;;;4.85;2.17;;;16.10;99.90;;;;;;5033422;28;20025;-33
2022/05/11 01:22:39;;;;;;;3.90;2.33;;;16.10;99.90;;;;;;5033278;28;20490;-30
2022/05/11 01:25:08;;;;;;;6.80;2.45;;;16.10;99.90;;;;;;5033607;28;20175;-32
2022/05/11 01:27:40;;;;;;;9.02;2.30;;;16.10;99.90;;;;;;5033628;28;20429;-29
2022/05/11 01:30:12;;;;;;;6.03;1.98;;;16.10;99.90;;;;;;5033684;28;20104;-34
2022/05/11 01:32:40;;;;;;;8.35;1.70;;;16.10;99.90;;;;;;5033582;28;20036;-28
2022/05/11 01:35:12;;;;;;;8.07;2.25;;;16.10;99.90;;;;;;5033189;28;20022;-32
2022/05/11 01:37:43;;;;;;;6.50;1.73;;;16.10;99.90;;;;;;5033215;28;20397;-31
2022/05/11 01:40:09;;;;;;;7.95;2.00;;;16.10;99.90;;;;;;5033135;28;20059;-31
2022/05/11 01:42:34;;;;;;;5.63;2.50;;;16.10;99.90;;;;;;5033438;28;20048;-33
2022/05/11 01:45:00;;;;;;;2.35;1.63;;;16.10;99.90;;;;;;5033109;28;20025;-29
2022/05/11 01:47:26;;;;;;;6.78;2.42;;;16.10;99.90;;;;;;5033149;28;20105;-32
2022/05/11 01:49:51;;;;;;;5.32;2.35;;;16.00;99.90;;;;;;5032995;28;20390;-28
2022/05/11 01:52:17;;;;;;;5.38;2.22;;;16.10;99.90;;;;;;5033050;28;20040;-29
2022/05/11 01:54:42;;;;;;;2.92;1.77;;;16.10;99.90;;;;;;5033299;28;20060;-33
2022/05/11 01:57:08;;;;;;;6.05;2.22;;;16.10;99.90;;;;;;5033062;28;20025;-29
2022/05/11 01:59:33;;;;;;;3.80;2.30;;;16.10;99.90;;;;;;5032904;28;20553;-28
2022/05/11 02:01:59;;;;;;;3.88;1.58;;;16.10;99.90;;;;;;5032888;28;20101;-30
2022/05/11 02:09:53;;;;;;;4.30;2.30;;;16.10;99.90;;;;;;5033120;28;20103;-36
2022/05/11 02:12:19;;;;;;;4.95;2.33;;;16.10;99.90;;;;;;5032932;28;20474;-36
2022/05/11 02:14:45;;;;;;;4.97;2.35;;;16.10;99.90;;;;;;5032925;28;20033;-38
2022/05/11 02:17:10;;;;;;;6.13;2.35;;;16.10;99.90;;;;;;5032804;28;20494;-38
2022/05/11 02:19:36;;;;;;;4.88;2.25;;;16.10;99.90;;;;;;5033004;28;20033;-37
2022/05/11 02:22:02;;;;;;;9.43;2.30;;;16.10;99.90;;;;;;5032847;28;20378;-28
2022/05/11 02:24:28;;;;;;;4.47;2.00;;;16.10;99.90;;;;;;5032813;28;20021;-31
2022/05/11 02:26:53;;;;;;;2.80;1.88;;;16.00;99.90;;;;;;5034168;28;20389;-30
2022/05/11 02:29:19;;;;;;;3.50;1.70;;;16.00;99.90;;;;;;5036873;28;20419;-30
2022/05/11 02:31:45;;;;;;;7.43;2.80;;;16.10;99.90;;;;;;5036884;28;20075;-31
2022/05/11 02:35:12;;;;;;;5.07;2.00;;;16.10;99.90;;;;;;5036462;28;20038;-30
2022/05/11 02:36:56;;;;;;;7.18;2.60;;;16.10;99.90;;;;;;5036412;28;20032;-35
2022/05/11 02:39:22;;;;;;;3.47;2.10;;;16.10;99.90;;;;;;5036355;28;20386;-31
2022/05/11 02:41:47;;;;;;;4.18;1.95;;;16.00;99.90;;;;;;5036687;28;20025;-33
2022/05/11 02:44:13;;;;;;;5.90;1.80;;;16.10;99.90;;;;;;5036426;28;20018;-29
2022/05/11 02:46:38;;;;;;;5.95;2.65;;;16.00;99.90;;;;;;5036289;28;20014;-33
2022/05/11 02:49:05;;;;;;;4.13;2.00;;;16.00;99.90;;;;;;5036309;28;20036;-31
2022/05/11 02:51:32;;;;;;;3.25;1.70;;;16.00;99.90;;;;;;5036301;28;20470;-29
2022/05/11 02:53:58;;;;;;;11.52;2.70;;;16.00;99.90;;;;;;5036519;28;20528;-36
2022/05/11 02:56:24;;;;;;;9.27;2.42;;;16.00;99.90;;;;;;5036146;28;20061;-37
2022/05/11 02:58:50;;;;;;;2.13;1.77;;;16.10;99.90;;;;;;5036389;28;20060;-37
2022/05/11 03:01:15;;;;;;;5.28;1.63;;;16.00;99.90;;;;;;5036223;28;20450;-41
2022/05/11 03:03:41;;;;;;;3.00;1.48;;;16.00;99.90;;;;;;5035956;28;20474;-37
2022/05/11 03:06:06;;;;;;;1.98;1.15;;;16.00;99.90;;;;;;5036265;28;20469;-36
2022/05/11 03:08:33;;;;;;;2.45;1.42;;;16.00;99.90;;;;;;5035923;28;20021;-38
2022/05/11 03:10:59;;;;;;;5.18;1.88;;;16.00;99.90;;;;;;5035881;28;20105;-37
2022/05/11 03:13:25;;;;;;;8.38;1.33;;;15.90;99.90;;;;;;5035821;28;20056;-37
2022/05/11 03:15:53;;;;;;;2.45;1.52;;;16.00;99.90;;;;;;5036101;28;20393;-37
2022/05/11 03:18:19;;;;;;;4.57;1.15;;;16.00;99.90;;;;;;5035946;28;20041;-38
2022/05/11 03:20:45;;;;;;;5.40;1.35;;;16.00;99.90;;;;;;5035672;28;20064;-37
2022/05/11 03:23:10;;;;;;;1.98;1.15;;;16.00;99.90;;;;;;5035398;28;20060;-36
2022/05/11 03:25:36;;;;;;;3.88;1.27;;;16.00;99.90;;;;;;5035642;28;20021;-39
2022/05/11 03:28:02;;;;;;;5.55;1.10;;;16.00;99.90;;;;;;5035572;28;20492;-35
2022/05/11 03:30:28;;;;;;;2.58;0.82;;;16.00;99.90;;;;;;5035500;28;20075;-37
2022/05/11 03:35:37;;;;;;;3.65;0.90;;;16.00;99.90;;;;;;5035436;28;20032;-41
2022/05/11 03:38:05;;;;;;;3.00;0.90;;;16.00;99.90;;;;;;5034086;28;20394;-36
2022/05/11 03:40:31;;;;;;;1.90;1.08;;;16.00;99.90;;;;;;5035218;28;20200;-35
2022/05/11 03:42:56;;;;;;;2.90;0.75;;;16.00;99.90;;;;;;5035314;28;20124;-38
2022/05/11 03:45:25;;;;;;;2.97;0.95;;;15.90;99.90;;;;;;5033679;28;20029;-36
2022/05/11 03:47:50;;;;;;;2.28;0.52;;;15.90;99.90;;;;;;5035219;28;20022;-38
2022/05/11 03:50:19;;;;;;;4.65;0.95;;;15.90;99.90;;;;;;5035242;28;20017;-35
2022/05/11 03:52:45;;;;;;;5.35;0.90;;;16.00;99.90;;;;;;5035373;28;20029;-31
2022/05/11 03:55:12;;;;;;;3.50;0.90;;;15.90;99.90;;;;;;5035057;28;20072;-31
2022/05/11 03:57:38;;;;;;;1.58;1.15;;;15.90;99.90;;;;;;5035022;28;20042;-47
2022/05/11 04:00:09;;;;;;;3.03;0.80;;;15.90;99.90;;;;;;5033809;28;20037;-38
2022/05/11 04:02:35;;;;;;;7.18;1.42;;;15.90;99.90;;;;;;5034864;28;20029;-36
2022/05/11 04:05:01;;;;;;;2.05;0.63;;;15.90;99.90;;;;;;5035141;28;20466;-37
2022/05/11 04:07:26;;;;;;;1.58;0.60;;;15.90;99.90;;;;;;5034892;28;20024;-37
2022/05/11 04:09:52;;;;;;;1.75;0.52;;;15.90;99.90;;;;;;5034817;28;20029;-31
2022/05/11 04:12:18;;;;;;;3.78;1.58;;;15.90;99.90;;;;;;5034725;28;20083;-30
2022/05/11 04:14:43;;;;;;;4.28;0.93;;;15.90;99.90;;;;;;5034708;28;20029;-35
2022/05/11 04:17:09;;;;;;;3.92;0.90;;;15.90;99.90;;;;;;5034734;28;20370;-46
2022/05/11 04:19:36;;;;;;;5.45;1.30;;;16.00;99.90;;;;;;5034585;28;20394;-36
2022/05/11 04:22:01;;;;;;;2.33;0.90;;;16.00;99.90;;;;;;5034579;28;20038;-38
2022/05/11 04:24:27;;;;;;;1.70;0.80;;;16.00;99.90;;;;;;5034543;28;20401;-37
2022/05/11 04:26:52;;;;;;;0.85;0.55;;;16.00;99.90;;;;;;5034510;28;20255;-38
2022/05/11 04:29:18;;;;;;;3.95;0.68;;;16.00;99.90;;;;;;5034645;28;20072;-37
2022/05/11 04:31:44;;;;;;;4.80;0.98;;;16.00;99.90;;;;;;5033177;28;20532;-37
2022/05/11 04:34:12;;;;;;;1.75;0.60;;;16.00;99.90;;;;;;5043675;28;20462;-37
2022/05/11 04:36:39;;;;;;;3.65;0.80;;;16.00;99.90;;;;;;5054238;28;20052;-37
2022/05/11 04:39:05;;;;;;;1.87;0.90;;;16.00;99.90;;;;;;5054082;28;20025;-36
2022/05/11 04:41:31;;;;;;;7.35;0.82;;;16.10;99.90;;;;;;5054082;28;20527;-38
2022/05/11 04:43:56;;;;;;;3.30;0.95;;;16.10;99.90;;;;;;5054116;28;20029;-38
2022/05/11 04:46:22;;;;;;;2.45;0.70;;;16.10;99.90;;;;;;5053968;28;20055;-46
2022/05/11 04:48:48;;;;;;;4.03;1.45;;;16.10;99.90;;;;;;5053684;28;20107;-37
2022/05/11 04:51:13;;;;;;;3.08;0.68;;;16.10;99.90;;;;;;5053637;28;20048;-37
2022/05/11 04:53:39;;;;;;;3.75;1.02;;;16.00;99.90;;;;;;5053878;28;20115;-36
2022/05/11 04:56:05;;;;;;;6.07;1.17;;;16.10;99.90;;;;;;5053817;28;20032;-39
2022/05/11 04:58:30;;;;;;;7.28;1.13;;;16.10;99.90;;;;;;5053798;28;20045;-36
2022/05/11 05:00:56;;;;;;;1.75;0.88;;;16.00;99.90;;;;;;5053672;28;20037;-38
2022/05/11 05:03:22;;;;;;;2.50;1.10;;;16.00;99.90;;;;;;5053589;28;20025;-30
2022/05/11 05:05:48;;;;;;;2.35;0.82;;;16.00;99.90;;;;;;5053691;28;20111;-37
2022/05/11 05:08:14;;;;;;;5.05;0.80;;;16.00;99.90;;;;;;5052343;28;20071;-36
2022/05/11 05:10:41;;;;;;;7.60;1.20;;;16.10;99.90;;;;;;5053561;28;20029;-37
2022/05/11 05:13:10;;;;;;;6.82;0.93;;;16.10;99.90;;;;;;5053852;28;20079;-37
2022/05/11 05:15:37;;;;;;;4.15;0.90;;;16.20;99.90;;;;;;5053787;28;20083;-53
2022/05/11 05:18:06;;;;;;;2.35;0.85;;;16.20;99.90;;;;;;5052485;28;20040;-36
2022/05/11 05:20:32;;;;;;;3.60;0.82;;;16.30;99.90;;;;;;5053654;28;20119;-38
2022/05/11 05:22:58;;;;;;;3.45;1.15;;;16.30;99.90;;;;;;5053272;28;20049;-38
2022/05/11 05:25:24;;;;;;;5.60;1.25;;;16.30;99.90;;;;;;5053344;28;20086;-38
2022/05/11 05:27:50;;;;;;;4.78;1.38;;;16.30;99.90;;;;;;5052384;28;20017;-39
2022/05/11 05:33:00;;;;;;;6.72;1.30;;;16.30;99.90;;;;;;5053793;28;20127;-37
2022/05/11 05:35:26;;;;;;;3.33;0.88;;;16.30;99.90;;;;;;5053098;28;20484;-38
2022/05/11 05:37:52;;;;;;;12.18;1.13;;;16.30;99.90;;;;;;5053153;28;20108;-38
2022/05/11 05:40:17;;;;;;;8.07;1.60;;;16.30;99.90;;;;;;5051702;28;20041;-48
2022/05/11 05:42:43;;;;;;;2.40;0.98;;;16.40;99.90;;;;;;5053377;28;20029;-37
2022/05/11 05:45:10;;;;;;;1.20;0.68;;;16.40;99.90;;;;;;5053189;28;20380;-37
2022/05/11 05:47:36;;;;;;;2.20;0.40;;;16.50;99.90;;;;;;5053092;28;20484;-36
2022/05/11 05:50:02;;;;;;;3.40;1.25;;;16.40;99.90;;;;;;5052997;28;20029;-37
2022/05/11 05:52:28;;;;;;;3.28;0.65;;;16.40;99.90;;;;;;5052959;28;20028;-38
2022/05/11 05:54:56;;;;;;;6.78;1.17;;;16.50;99.90;;;;;;5051635;28;20025;-37
2022/05/11 05:57:21;;;;;;;5.07;0.77;;;16.50;99.90;;;;;;5052945;28;20045;-38
2022/05/11 05:59:47;;;;;;;2.35;0.90;;;16.60;99.90;;;;;;5052898;28;20025;-38
2022/05/11 06:02:14;;;;;;;1.42;0.55;;;16.80;99.90;;;;;;5053853;28;20037;-39
2022/05/11 06:04:48;;;;;;;2.60;1.35;;;17.00;99.70;;;;;;5057085;28;20431;-30
2022/05/11 06:07:15;;;;;;;2.30;0.57;;;17.10;99.50;;;;;;5057043;28;20033;-48
2022/05/11 06:09:40;;;;;;;4.03;1.23;;;17.10;99.30;;;;;;5057168;28;20476;-37
2022/05/11 06:12:07;;;;;;;3.25;0.60;;;17.10;99.50;;;;;;5056938;28;20099;-36
2022/05/11 06:14:33;;;;;;;1.02;0.45;;;17.10;99.20;;;;;;5056706;28;20032;-38
2022/05/11 06:16:59;;;;;;;3.20;0.60;;;17.30;99.00;;;;;;5056747;28;20105;-37
2022/05/11 06:19:26;;;;;;;9.23;1.15;;;17.40;98.80;;;;;;5055418;28;20444;-38
2022/05/11 06:21:52;;;;;;;4.15;0.73;;;17.90;98.10;;;;;;5056540;28;20496;-36
2022/05/11 06:24:18;;;;;;;6.78;0.60;;;18.40;97.60;;;;;;5056732;28;20029;-38
2022/05/11 06:26:43;;;;;;;1.30;0.73;;;18.70;97.10;;;;;;5056943;28;20048;-53
2022/05/11 06:29:10;;;;;;;1.90;0.55;;;18.80;97.00;;;;;;5056543;28;20025;-38
2022/05/11 06:31:36;;;;;;;2.10;1.00;;;18.90;96.90;;;;;;5056832;28;20037;-38
2022/05/11 06:34:01;;;;;;;3.88;0.43;;;18.50;97.00;;;;;;5056655;28;20048;-37
2022/05/11 06:36:27;;;;;;;2.72;1.00;;;18.20;97.30;;;;;;5056344;28;20037;-41
2022/05/11 06:38:53;;;;;;;4.18;0.98;;;18.00;97.70;;;;;;5056469;28;20563;-38
2022/05/11 06:41:23;;;;;;;5.72;0.68;;;17.80;97.80;;;;;;5056407;28;20075;-38
2022/05/11 06:43:51;;;;;;;3.78;0.57;;;17.70;97.90;;;;;;5056658;28;20025;-37
2022/05/11 06:46:19;;;;;;;4.40;0.90;;;17.50;98.10;;;;;;5056644;28;20021;-37
2022/05/11 06:48:45;;;;;;;2.72;0.77;;;17.40;98.50;;;;;;5055015;28;20021;-32
2022/05/11 06:51:12;;;;;;;2.85;1.05;;;17.50;98.40;;;;;;5056452;28;20099;-34
2022/05/11 06:59:20;;;;;;;6.15;1.20;;;18.30;97.60;;;;;;5056022;28;20455;-36
2022/05/11 07:01:49;;;;;;;1.88;0.70;;;18.00;97.70;;;;;;5056248;28;20512;-37
2022/05/11 07:04:15;;;;;;;2.75;0.75;;;18.30;98.20;;;;;;5055952;28;20539;-30
2022/05/11 07:06:41;;;;;;;5.72;1.08;;;18.60;97.60;;;;;;5055914;28;20033;-36
2022/05/11 07:09:06;;;;;;;6.35;1.02;;;19.60;97.00;;;;;;5054519;28;20060;-31
2022/05/11 07:14:16;;;;;;;8.82;1.13;;;20.70;96.10;;;;;;5055757;28;20585;-32
2022/05/11 07:16:43;;;;;;;5.38;0.80;;;21.30;95.20;;;;;;5055702;28;20105;-30
2022/05/11 07:19:09;;;;;;;4.27;0.70;;;21.00;95.30;;;;;;5055656;28;20033;-29
2022/05/11 07:21:35;;;;;;;7.05;1.02;;;20.90;95.10;;;;;;5055807;28;20644;-30
2022/05/11 07:24:01;;;;;;;1.95;0.90;;;20.50;95.50;;;;;;5055306;28;20049;-34
2022/05/11 07:26:26;;;;;;;3.60;1.15;;;20.00;95.90;;;;;;5055586;28;20039;-47
2022/05/11 07:28:52;;;;;;;1.38;0.75;;;19.80;96.00;;;;;;5055504;28;20021;-38
2022/05/11 07:31:17;;;;;;;3.63;0.65;;;19.70;95.90;;;;;;5055402;28;20030;-36
2022/05/11 07:33:44;;;;;;;0.60;0.60;;;19.70;96.10;;;;;;5055277;28;20503;-38
2022/05/11 07:36:10;;;;;;;5.60;0.70;;;19.70;95.80;;;;;;5055386;28;20060;-36
2022/05/11 07:38:38;;;;;;;2.92;0.50;;;19.60;95.60;;;;;;5055281;28;20357;-38
2022/05/11 07:41:06;;;;;;;;;;;19.60;95.40;;;;;;5055645;28;20394;-38
2022/05/11 07:43:32;;;;;;;2.55;0.82;;;19.50;95.40;;;;;;5055222;28;19932;-38
2022/05/11 07:45:58;;;;;;;6.03;0.82;;;19.40;95.50;;;;;;5055157;28;20025;-38
2022/05/11 07:48:23;;;;;;;6.75;1.27;;;19.40;95.30;;;;;;5055087;28;20052;-38
2022/05/11 07:50:49;;;;;;;4.78;1.05;;;19.40;95.50;;;;;;5055070;28;20481;-38
2022/05/11 07:53:16;;;;;;;4.72;0.57;;;19.60;95.70;;;;;;5055065;28;20032;-47
2022/05/11 07:55:42;;;;;;;6.00;0.70;;;19.90;95.60;;;;;;5054982;28;20108;-29
2022/05/11 08:00:55;;;;;;;;;;;20.20;94.90;;;;;;5055224;28;20056;-29
2022/05/11 08:03:20;;;;;;;4.65;0.70;;;20.40;94.50;;;;;;5054821;28;19908;-34
2022/05/11 08:05:46;;;;;;;3.78;0.63;;;20.50;94.10;;;;;;5054816;28;20043;-34
2022/05/11 08:08:12;;;;;;;4.80;0.65;;;20.50;94.20;;;;;;5054794;28;20039;-47
2022/05/11 08:10:42;;;;;;;3.03;0.50;;;20.70;94.50;;;;;;5054711;28;20029;-37
2022/05/11 08:13:08;;;;;;;3.90;0.70;;;20.80;93.70;;;;;;5054878;28;20028;-38
2022/05/11 08:15:43;;;;;;;2.25;0.50;;;21.00;93.70;;;;;;5054666;28;20025;-37
2022/05/11 08:18:09;;;;;;;2.13;0.57;;;21.20;93.80;;;;;;5054842;28;20029;-38
2022/05/11 08:20:41;;;;;;;8.20;0.87;;;21.40;93.30;;;;;;5054543;28;20048;-46
2022/05/11 08:23:07;;;;;;;6.38;1.13;;;21.60;93.20;;;;;;5053142;28;20037;-39
2022/05/11 08:25:35;;;;;;;2.22;0.63;;;21.70;93.00;;;;;;5053951;28;20049;-39
2022/05/11 08:28:02;;;;;;;1.65;0.70;;;21.80;92.50;;;;;;5054417;28;20496;-37
2022/05/11 08:33:22;;;;;;;3.85;0.75;;;21.50;93.70;;;;;;5054093;28;20507;-39
2022/05/11 08:35:55;;;;;;;0.60;0.32;;;21.50;93.50;;;;;;5054293;28;20511;-41
2022/05/11 08:38:24;;;;;;;1.60;0.40;;;21.50;93.10;;;;;;5054417;28;20033;-39
2022/05/11 08:41:02;;;;;;;3.97;0.70;;;21.60;92.90;;;;;;5054373;28;20511;-39
2022/05/11 08:43:31;;;;;;;3.22;0.63;;;21.90;92.50;;;;;;5054147;28;20031;-38
2022/05/11 08:46:28;;;;;;;5.18;0.68;;;22.00;92.70;;;;;;5054343;28;20033;-38
2022/05/11 08:49:03;;;;;;;1.13;0.57;;;22.10;92.20;;;;;;5054069;28;20112;-39
2022/05/11 08:51:52;;;;;;;4.22;0.43;;;22.30;92.20;;;;;;5053949;28;20033;-37
2022/05/11 08:54:39;;;;;;;3.50;0.80;;;22.40;92.40;;;;;;5053908;28;20057;-38
2022/05/11 08:57:28;;;;;;;2.03;0.50;;;22.70;91.80;;;;;;5053913;28;20036;-39
2022/05/11 08:59:59;;;;;;;5.63;0.35;;;22.70;91.30;;;;;;5053633;28;20087;-50
2022/05/11 09:02:34;;;;;;;1.95;1.08;;;22.80;91.30;;;;;;5053814;28;20025;-44
2022/05/11 09:05:01;;;;;;;2.33;0.50;;;23.10;91.20;;;;;;5053708;28;20024;-33
2022/05/11 09:07:31;;;;;;;2.42;0.52;;;23.10;89.80;;;;;;5053602;28;20099;-38
2022/05/11 09:09:57;;;;;;;2.08;0.32;;;23.10;90.00;;;;;;5053515;28;20033;-33
2022/05/11 09:12:23;;;;;;;3.13;0.63;;;23.40;89.50;;;;;;5053505;28;20082;-29
2022/05/11 09:14:57;;;;;;;5.03;0.82;;;23.10;89.00;;;;;;5053805;28;20025;-32
2022/05/11 09:17:31;;;;;;;5.45;0.55;;;23.30;89.10;;;;;;5053734;28;20029;-30
2022/05/11 09:20:07;;;;;;;1.65;0.50;;;23.60;87.90;;;;;;5053466;28;20037;-34
2022/05/11 09:22:38;;;;;;;5.35;0.70;;;23.80;88.00;;;;;;5053226;28;20040;-33
2022/05/11 09:25:26;;;;;;;2.95;0.70;;;24.00;87.20;;;;;;5053376;28;20101;-32
2022/05/11 09:28:11;;;;;;;5.20;0.70;;;24.20;87.60;;;;;;5053363;28;20094;-32
2022/05/11 09:30:38;;;;;;;6.97;0.93;;;24.40;88.00;;;;;;5053296;28;20034;-30
2022/05/11 09:33:16;;;;;;;1.35;0.70;;;24.10;88.40;;;;;;5053036;28;20025;-33
2022/05/11 09:35:44;;;;;;;11.93;0.95;;;24.10;88.90;;;;;;5053122;28;20017;-31
2022/05/11 09:38:21;;;;;;;6.20;0.77;;;24.00;89.80;;;;;;5053241;28;20040;-34
2022/05/11 09:40:57;;;;;;;6.70;1.10;;;24.10;89.80;;;;;;5053087;28;20135;-30
2022/05/11 09:43:50;;;;;;;4.90;0.75;;;24.30;89.40;;;;;;5053380;28;20025;-29
2022/05/11 09:46:32;;;;;;;7.63;2.05;;;24.20;90.00;;;;;;5052144;28;20033;-32
2022/05/11 09:49:04;;;;;;;3.45;0.82;;;23.60;90.30;;;;;;5053016;28;20033;-29
2022/05/11 09:51:38;;;;;;;7.60;1.42;;;23.30;91.10;;;;;;5052907;28;20086;-31
2022/05/11 09:54:37;;;;;;;3.92;1.00;;;23.00;91.80;;;;;;5053062;28;20029;-30
2022/05/11 09:57:03;;;;;;;8.70;1.38;;;23.10;91.20;;;;;;5052899;28;20033;-33
2022/05/11 09:59:38;;;;;;;6.20;1.27;;;23.50;90.90;;;;;;5053107;28;20036;-35
2022/05/11 10:02:30;;;;;;;5.28;1.05;;;24.00;90.90;;;;;;5053122;28;20067;-30
2022/05/11 10:05:10;;;;;;;5.30;0.80;;;24.40;90.10;;;;;;5051514;28;20397;-32
2022/05/11 10:07:57;;;;;;;11.35;1.25;;;24.40;90.60;;;;;;5053016;28;20477;-30
2022/05/11 10:10:23;;;;;;;1.90;1.20;;;24.00;90.70;;;;;;5052841;28;20052;-32
2022/05/11 10:12:49;;;;;;;6.28;1.00;;;24.10;90.60;;;;;;5052765;28;20029;-39
2022/05/11 10:24:11;;;;;;;2.35;0.80;;;23.40;90.50;;;;;;5052624;28;20138;-39
2022/05/11 10:26:49;;;;;;;5.75;0.80;;;23.40;90.10;;;;;;5052971;28;20405;-37
2022/05/11 10:29:40;;;;;;;4.80;0.90;;;23.90;90.00;;;;;;5052761;28;20083;-40
2022/05/11 10:32:16;;;;;;;3.92;1.15;;;24.10;89.60;;;;;;5052875;28;20048;-39
2022/05/11 10:35:00;;;;;;;17.37;1.60;;;24.20;89.70;;;;;;5052567;28;20558;-39
2022/05/11 10:37:37;;;;;;;3.22;1.38;;;24.30;90.40;;;;;;5052363;28;20346;-39
2022/05/11 10:40:23;;;;;;;8.27;1.08;;;24.40;90.10;;;;;;5052565;28;20029;-39
2022/05/11 10:43:10;;;;;;;9.73;1.42;;;24.30;89.90;;;;;;5052508;28;20091;-40
2022/05/11 10:45:43;;;;;;;2.10;0.77;;;24.00;90.20;;;;;;5051445;28;20025;-39
2022/05/11 10:48:35;;;;;;;4.45;0.80;;;23.60;91.10;;;;;;5054216;28;20130;-38
2022/05/11 10:51:01;;;;;;;14.25;1.88;;;23.60;91.00;;;;;;5055100;28;20474;-41
2022/05/11 10:53:42;;;;;;;7.10;1.10;;;23.50;90.70;;;;;;5056241;28;20104;-39
2022/05/11 10:56:30;;;;;;;7.60;1.33;;;23.40;90.60;;;;;;5056508;28;20032;-38
2022/05/11 10:59:49;;;;;;;6.13;1.20;;;23.40;90.60;;;;;;5056035;28;20017;-39
2022/05/11 11:02:35;;;;;;;8.25;1.52;;;23.10;90.50;;;;;;5033879;28;20037;-39
2022/05/11 11:05:15;;;;;;;13.50;1.08;;;22.90;91.10;;;;;;5056046;28;20078;-59
2022/05/11 11:07:44;;;;;;;8.63;1.27;;;22.80;91.40;;;;;;5055896;28;20096;-43
2022/05/11 11:10:40;;;;;;;4.35;1.02;;;22.80;90.90;;;;;;5055823;28;20028;-34
2022/05/11 11:13:24;;;;;;;4.07;0.65;;;22.90;90.60;;;;;;5055852;28;20108;-33
2022/05/11 11:15:51;;;;;;;8.30;1.13;;;22.80;90.30;;;;;;5055658;28;20033;-49
2022/05/11 11:18:25;;;;;;;2.92;0.85;;;22.70;89.80;;;;;;5055719;28;20489;-38
2022/05/11 11:20:56;;;;;;;3.70;1.10;;;22.70;89.70;;;;;;5055735;28;20028;-39
2022/05/11 11:23:21;;;;;;;3.35;0.60;;;22.60;89.80;;;;;;5055463;28;20083;-32
2022/05/11 11:26:01;;;;;;;3.28;0.80;;;22.70;90.10;;;;;;5056104;28;20060;-34
2022/05/11 11:28:34;;;;;;;2.13;0.77;;;22.80;90.00;;;;;;5055845;28;20041;-34
2022/05/11 11:30:59;;;;;;;2.63;0.93;;;22.60;90.30;;;;;;5055561;28;20392;-38
2022/05/11 11:33:30;;;;;;;12.88;0.80;;;22.60;90.60;;;;;;5055228;28;20112;-32
2022/05/11 11:36:27;;;;;;;6.88;0.95;;;22.80;90.40;;;;;;5055339;28;20037;-39
2022/05/11 11:38:58;;;;;;;2.65;0.80;;;22.70;90.40;;;;;;5053364;28;20541;-39
2022/05/11 11:41:28;;;;;;;3.88;0.60;;;22.70;90.30;;;;;;5055478;28;20431;-39
2022/05/11 11:43:57;;;;;;;1.67;0.55;;;22.80;90.70;;;;;;5055578;28;20553;-39
2022/05/11 11:46:50;;;;;;;3.42;1.05;;;22.80;90.30;;;;;;5055161;28;20032;-39
2022/05/11 11:49:18;;;;;;;4.35;0.88;;;23.10;89.60;;;;;;5054185;28;20043;-38
2022/05/11 11:52:03;;;;;;;5.40;0.68;;;23.00;91.10;;;;;;5055121;28;20033;-37
2022/05/11 11:54:38;;;;;;;1.90;0.90;;;22.80;91.00;;;;;;5055026;28;20079;-45
2022/05/11 11:57:06;;;;;;;2.28;0.90;;;22.80;90.90;;;;;;5054953;28;20484;-38
2022/05/11 11:59:40;;;;;;;3.42;0.75;;;22.80;91.00;;;;;;5053773;28;20043;-33
2022/05/11 12:02:33;;;;;;;2.38;0.85;;;22.90;91.20;;;;;;5055110;28;20021;-30
2022/05/11 12:05:08;;;;;;;11.20;1.10;;;23.00;91.20;;;;;;5054940;28;20477;-37
2022/05/11 12:16:56;;;;;;;4.25;0.60;;;23.60;89.80;;;;;;5054930;28;20126;-35
2022/05/11 12:19:24;;;;;;;6.20;1.00;;;23.70;89.00;;;;;;5054640;28;20040;-30
2022/05/11 12:22:14;;;;;;;2.03;0.88;;;23.70;88.20;;;;;;5054496;28;20504;-35
2022/05/11 12:25:09;;;;;;;1.75;0.57;;;23.40;88.40;;;;;;5051495;28;20044;-49
2022/05/11 12:27:37;;;;;;;6.03;0.93;;;23.50;88.50;;;;;;5054397;28;20068;-34
2022/05/11 12:30:22;;;;;;;6.55;0.93;;;23.40;88.10;;;;;;5054676;28;20520;-43
2022/05/11 12:32:57;;;;;;;2.10;0.60;;;23.50;88.00;;;;;;5054623;28;20028;-34
2022/05/11 12:35:45;;;;;;;4.93;1.05;;;23.60;88.50;;;;;;5054017;28;20037;-38
2022/05/11 12:38:13;;;;;;;5.38;1.10;;;23.00;89.50;;;;;;5054325;28;20047;-38
2022/05/11 12:40:47;;;;;;;5.05;0.95;;;23.10;89.40;;;;;;5054068;28;20029;-38
2022/05/11 12:43:24;;;;;;;1.35;0.80;;;23.10;89.80;;;;;;5054198;28;20032;-38
2022/05/11 12:45:51;;;;;;;7.57;1.20;;;23.30;89.20;;;;;;5054126;28;20025;-37
2022/05/11 12:48:25;;;;;;;4.78;1.35;;;23.30;89.60;;;;;;5054291;28;20025;-39
2022/05/11 12:51:05;;;;;;;11.10;1.23;;;23.30;89.00;;;;;;5054346;28;20074;-39
2022/05/11 12:53:33;;;;;;;4.53;1.00;;;23.50;88.50;;;;;;5054172;28;20094;-38
2022/05/11 12:56:25;;;;;;;5.22;1.00;;;23.70;89.80;;;;;;5053774;28;20029;-43
2022/05/11 12:58:53;;;;;;;5.88;1.10;;;23.90;89.10;;;;;;5053754;28;20029;-38
2022/05/11 13:01:22;;;;;;;6.80;1.52;;;23.90;89.10;;;;;;5053583;28;20027;-37
2022/05/11 13:03:52;;;;;;;6.93;1.33;;;23.90;88.70;;;;;;5052611;28;20040;-37
2022/05/11 13:06:43;;;;;;;3.72;1.20;;;24.00;90.00;;;;;;5052441;28;20075;-50
2022/05/11 13:09:15;;;;;;;4.93;1.85;;;24.20;88.50;;;;;;5053583;28;20075;-30
2022/05/11 13:11:41;;;;;;;8.80;2.00;;;24.20;88.80;;;;;;5053260;28;20056;-37
2022/05/11 13:14:22;;;;;;;24.48;2.10;;;24.20;89.60;;;;;;5053536;28;20041;-33
2022/05/11 13:16:53;;;;;;;4.03;1.45;;;24.10;89.90;;;;;;5053554;28;20033;-31
2022/05/11 13:19:29;;;;;;;9.63;1.90;;;23.80;89.80;;;;;;5053450;28;20098;-32
2022/05/11 13:22:00;;;;;;;6.07;1.75;;;23.60;91.10;;;;;;5053407;28;20481;-33
2022/05/11 13:24:50;;;;;;;4.05;1.45;;;23.80;90.40;;;;;;5053315;28;20049;-45
2022/05/11 13:27:43;;;;;;;4.85;2.60;;;24.00;89.70;;;;;;5053707;28;20146;-33
2022/05/11 13:30:16;;;;;;;9.30;1.77;;;24.40;89.30;;;;;;5053084;28;20480;-31
2022/05/11 13:32:54;;;;;;;3.65;1.60;;;24.40;90.00;;;;;;5053046;28;20037;-31
2022/05/11 13:35:22;;;;;;;5.60;1.88;;;24.00;89.00;;;;;;5053079;28;20029;-30
2022/05/11 13:38:18;;;;;;;6.95;1.77;;;24.20;90.00;;;;;;5053075;28;20486;-32
2022/05/11 13:41:05;;;;;;;9.25;1.65;;;24.30;90.10;;;;;;5052403;28;20578;-32
2022/05/11 13:43:32;;;;;;;;;;;24.60;88.70;;;;;;5053425;28;20048;-37
2022/05/11 13:46:07;;;;;;;8.75;2.17;;;24.40;89.30;;;;;;5053242;28;19954;-31
2022/05/11 13:48:37;;;;;;;4.43;1.52;;;24.10;89.90;;;;;;5051408;28;20037;-30